Strona główna
METAR-TAF:

METAR-TAF

Lotnisko :

Wahpeton, Dakota Północna, Stany Zjednoczone

Szerokość geograficzna: 46-14-39N, Długość geograficzna: 096-36-26W, wysokość: 295 m

Aktualna obserwacja pogody

Raport powstał 21 minut temu, godzina 19:55 UTC
Wiatr 9 kt od północny zachód
Temperatura -18°C
Wilgotność 71%
Ciśnienie 1036 hPa
Widzialność: 16.1 km

METAR: KBWP 191955Z AUTO 31009KT 10SM M18/M22 A3059 RMK AO1

czas: 14:16 (20:16 UTC)


TAF: brakujący

Obserwacja i prognoza pogody dla ponad 4000 lotnisk (raport METAR i TAF).

Dostępne stacje oznaczono żółtymi i czerwonymi punktami na mapie.

Najedź kursorem aby zobaczyć nazwę stacji.

Kliknij aby zobaczyć obserwacje i prognozy pogody.

Aby zmienić mapę: kliknij na zielony przycisk z czarnym krzyżykiem, aby powiększyć; na zielony przycisk z myślnikiem, aby pomniejszyć; na zielone strzałki, aby przejść do map sąsiednich.


METAR-TAF: